sensor_id;sensor_type;location;lat;lon;timestamp;P1;durP1;ratioP1;P2;durP2;ratioP2
18596;SDS011;9428;50.950;6.912;2022-10-31T00:00:06;18.55;;;6.65;;
18596;SDS011;9428;50.950;6.912;2022-10-31T00:02:55;15.23;;;5.78;;
18596;SDS011;9428;50.950;6.912;2022-10-31T00:05:43;18.13;;;6.78;;
18596;SDS011;9428;50.950;6.912;2022-10-31T00:08:35;11.50;;;5.90;;
18596;SDS011;9428;50.950;6.912;2022-10-31T00:11:22;13.82;;;6.05;;
18596;SDS011;9428;50.950;6.912;2022-10-31T00:14:12;13.57;;;5.97;;
18596;SDS011;9428;50.950;6.912;2022-10-31T00:17:00;13.48;;;5.85;;
18596;SDS011;9428;50.950;6.912;2022-10-31T00:19:48;12.68;;;5.95;;
18596;SDS011;9428;50.950;6.912;2022-10-31T00:22:35;15.60;;;6.43;;
18596;SDS011;9428;50.950;6.912;2022-10-31T00:25:23;12.50;;;5.75;;
18596;SDS011;9428;50.950;6.912;2022-10-31T00:28:10;16.13;;;6.47;;
18596;SDS011;9428;50.950;6.912;2022-10-31T00:30:58;13.90;;;5.63;;
18596;SDS011;9428;50.950;6.912;2022-10-31T00:33:49;17.17;;;6.10;;
18596;SDS011;9428;50.950;6.912;2022-10-31T00:36:37;12.15;;;6.00;;
18596;SDS011;9428;50.950;6.912;2022-10-31T00:39:25;12.18;;;6.80;;
18596;SDS011;9428;50.950;6.912;2022-10-31T00:42:12;12.77;;;6.55;;
18596;SDS011;9428;50.950;6.912;2022-10-31T00:44:59;17.70;;;6.90;;
18596;SDS011;9428;50.950;6.912;2022-10-31T00:47:46;17.63;;;6.38;;
18596;SDS011;9428;50.950;6.912;2022-10-31T00:50:35;10.18;;;5.28;;
18596;SDS011;9428;50.950;6.912;2022-10-31T00:53:24;11.32;;;5.60;;
18596;SDS011;9428;50.950;6.912;2022-10-31T00:56:11;14.73;;;5.60;;
18596;SDS011;9428;50.950;6.912;2022-10-31T00:58:59;16.02;;;6.13;;
18596;SDS011;9428;50.950;6.912;2022-10-31T01:01:46;11.15;;;6.10;;
18596;SDS011;9428;50.950;6.912;2022-10-31T01:04:33;7.93;;;5.38;;
18596;SDS011;9428;50.950;6.912;2022-10-31T01:07:20;13.30;;;5.55;;
18596;SDS011;9428;50.950;6.912;2022-10-31T01:10:09;17.92;;;6.07;;
18596;SDS011;9428;50.950;6.912;2022-10-31T01:12:57;15.43;;;6.18;;
18596;SDS011;9428;50.950;6.912;2022-10-31T01:15:44;14.35;;;6.38;;
18596;SDS011;9428;50.950;6.912;2022-10-31T01:18:31;11.43;;;6.18;;
18596;SDS011;9428;50.950;6.912;2022-10-31T01:21:20;15.32;;;6.88;;
18596;SDS011;9428;50.950;6.912;2022-10-31T01:24:08;10.55;;;5.45;;
18596;SDS011;9428;50.950;6.912;2022-10-31T01:26:56;14.75;;;6.88;;
18596;SDS011;9428;50.950;6.912;2022-10-31T01:29:45;14.98;;;5.85;;
18596;SDS011;9428;50.950;6.912;2022-10-31T01:32:33;13.40;;;6.70;;
18596;SDS011;9428;50.950;6.912;2022-10-31T01:35:20;9.82;;;5.90;;
18596;SDS011;9428;50.950;6.912;2022-10-31T01:38:07;13.77;;;6.63;;
18596;SDS011;9428;50.950;6.912;2022-10-31T01:40:54;16.13;;;6.47;;
18596;SDS011;9428;50.950;6.912;2022-10-31T01:43:46;16.92;;;6.57;;
18596;SDS011;9428;50.950;6.912;2022-10-31T01:46:40;16.50;;;7.10;;
18596;SDS011;9428;50.950;6.912;2022-10-31T01:49:33;12.45;;;6.50;;
18596;SDS011;9428;50.950;6.912;2022-10-31T01:52:24;12.60;;;6.30;;
18596;SDS011;9428;50.950;6.912;2022-10-31T01:55:15;15.95;;;6.53;;
18596;SDS011;9428;50.950;6.912;2022-10-31T01:58:08;14.30;;;6.40;;
18596;SDS011;9428;50.950;6.912;2022-10-31T02:01:00;12.80;;;7.00;;
18596;SDS011;9428;50.950;6.912;2022-10-31T02:03:48;11.70;;;6.95;;
18596;SDS011;9428;50.950;6.912;2022-10-31T02:06:37;12.00;;;7.30;;
18596;SDS011;9428;50.950;6.912;2022-10-31T02:09:29;15.55;;;7.53;;
18596;SDS011;9428;50.950;6.912;2022-10-31T02:12:18;12.65;;;7.05;;
18596;SDS011;9428;50.950;6.912;2022-10-31T02:15:07;13.48;;;6.60;;
18596;SDS011;9428;50.950;6.912;2022-10-31T02:17:56;12.40;;;6.05;;
18596;SDS011;9428;50.950;6.912;2022-10-31T02:20:48;16.85;;;6.25;;
18596;SDS011;9428;50.950;6.912;2022-10-31T02:23:58;11.75;;;5.97;;
18596;SDS011;9428;50.950;6.912;2022-10-31T02:27:03;13.27;;;6.35;;
18596;SDS011;9428;50.950;6.912;2022-10-31T02:30:06;15.15;;;6.45;;
18596;SDS011;9428;50.950;6.912;2022-10-31T02:33:00;12.93;;;6.18;;
18596;SDS011;9428;50.950;6.912;2022-10-31T02:35:58;17.98;;;6.55;;
18596;SDS011;9428;50.950;6.912;2022-10-31T02:38:51;11.38;;;6.07;;
18596;SDS011;9428;50.950;6.912;2022-10-31T02:41:45;14.15;;;6.88;;
18596;SDS011;9428;50.950;6.912;2022-10-31T02:44:36;8.88;;;6.13;;
18596;SDS011;9428;50.950;6.912;2022-10-31T02:47:29;19.52;;;6.63;;
18596;SDS011;9428;50.950;6.912;2022-10-31T02:50:25;10.60;;;6.10;;
18596;SDS011;9428;50.950;6.912;2022-10-31T02:53:15;12.13;;;6.80;;
18596;SDS011;9428;50.950;6.912;2022-10-31T02:56:04;10.73;;;5.90;;
18596;SDS011;9428;50.950;6.912;2022-10-31T02:58:55;9.18;;;5.97;;
18596;SDS011;9428;50.950;6.912;2022-10-31T03:01:52;8.10;;;5.68;;
18596;SDS011;9428;50.950;6.912;2022-10-31T03:04:58;14.50;;;5.95;;
18596;SDS011;9428;50.950;6.912;2022-10-31T03:08:08;18.33;;;6.28;;
18596;SDS011;9428;50.950;6.912;2022-10-31T03:11:02;9.88;;;6.03;;
18596;SDS011;9428;50.950;6.912;2022-10-31T03:13:51;10.68;;;6.22;;
18596;SDS011;9428;50.950;6.912;2022-10-31T03:16:45;10.05;;;6.13;;
18596;SDS011;9428;50.950;6.912;2022-10-31T03:19:34;12.00;;;6.18;;
18596;SDS011;9428;50.950;6.912;2022-10-31T03:22:26;14.88;;;5.80;;
18596;SDS011;9428;50.950;6.912;2022-10-31T03:25:17;13.27;;;6.28;;
18596;SDS011;9428;50.950;6.912;2022-10-31T03:28:05;16.50;;;6.43;;
18596;SDS011;9428;50.950;6.912;2022-10-31T03:30:55;13.27;;;6.18;;
18596;SDS011;9428;50.950;6.912;2022-10-31T03:33:45;14.07;;;6.40;;
18596;SDS011;9428;50.950;6.912;2022-10-31T03:36:36;14.93;;;6.45;;
18596;SDS011;9428;50.950;6.912;2022-10-31T03:39:26;13.68;;;6.45;;
18596;SDS011;9428;50.950;6.912;2022-10-31T03:42:17;11.50;;;6.10;;
18596;SDS011;9428;50.950;6.912;2022-10-31T03:45:08;12.80;;;7.38;;
18596;SDS011;9428;50.950;6.912;2022-10-31T03:47:59;17.30;;;6.50;;
18596;SDS011;9428;50.950;6.912;2022-10-31T03:50:49;13.93;;;6.13;;
18596;SDS011;9428;50.950;6.912;2022-10-31T03:53:43;11.93;;;6.32;;
18596;SDS011;9428;50.950;6.912;2022-10-31T03:56:39;13.63;;;6.18;;
18596;SDS011;9428;50.950;6.912;2022-10-31T03:59:33;11.73;;;6.45;;
18596;SDS011;9428;50.950;6.912;2022-10-31T04:02:26;12.77;;;6.63;;
18596;SDS011;9428;50.950;6.912;2022-10-31T04:05:19;14.23;;;6.32;;
18596;SDS011;9428;50.950;6.912;2022-10-31T04:08:08;15.70;;;6.55;;
18596;SDS011;9428;50.950;6.912;2022-10-31T04:10:59;13.63;;;6.22;;
18596;SDS011;9428;50.950;6.912;2022-10-31T04:13:49;9.93;;;6.30;;
18596;SDS011;9428;50.950;6.912;2022-10-31T04:16:39;12.50;;;7.30;;
18596;SDS011;9428;50.950;6.912;2022-10-31T04:19:29;11.20;;;5.53;;
18596;SDS011;9428;50.950;6.912;2022-10-31T04:22:16;12.98;;;6.25;;
18596;SDS011;9428;50.950;6.912;2022-10-31T04:25:03;10.75;;;6.45;;
18596;SDS011;9428;50.950;6.912;2022-10-31T04:27:51;12.50;;;7.18;;
18596;SDS011;9428;50.950;6.912;2022-10-31T04:30:38;13.00;;;6.57;;
18596;SDS011;9428;50.950;6.912;2022-10-31T04:33:27;15.82;;;6.65;;
18596;SDS011;9428;50.950;6.912;2022-10-31T04:36:14;10.90;;;6.63;;
18596;SDS011;9428;50.950;6.912;2022-10-31T04:39:01;11.75;;;6.38;;
18596;SDS011;9428;50.950;6.912;2022-10-31T04:41:48;10.45;;;6.05;;
18596;SDS011;9428;50.950;6.912;2022-10-31T04:44:36;11.50;;;6.03;;
18596;SDS011;9428;50.950;6.912;2022-10-31T04:47:23;13.93;;;5.38;;
18596;SDS011;9428;50.950;6.912;2022-10-31T04:50:11;13.50;;;7.45;;
18596;SDS011;9428;50.950;6.912;2022-10-31T04:52:59;12.98;;;6.00;;
18596;SDS011;9428;50.950;6.912;2022-10-31T04:55:46;19.00;;;6.88;;
18596;SDS011;9428;50.950;6.912;2022-10-31T04:58:33;15.63;;;6.05;;
18596;SDS011;9428;50.950;6.912;2022-10-31T05:01:20;13.90;;;6.60;;
18596;SDS011;9428;50.950;6.912;2022-10-31T05:04:08;9.77;;;5.25;;
18596;SDS011;9428;50.950;6.912;2022-10-31T05:06:56;9.35;;;5.80;;
18596;SDS011;9428;50.950;6.912;2022-10-31T05:09:43;15.50;;;6.47;;
18596;SDS011;9428;50.950;6.912;2022-10-31T05:12:30;12.23;;;5.63;;
18596;SDS011;9428;50.950;6.912;2022-10-31T05:15:18;11.00;;;5.38;;
18596;SDS011;9428;50.950;6.912;2022-10-31T05:18:07;11.95;;;5.82;;
18596;SDS011;9428;50.950;6.912;2022-10-31T05:20:54;10.80;;;5.65;;
18596;SDS011;9428;50.950;6.912;2022-10-31T05:23:42;12.55;;;5.97;;
18596;SDS011;9428;50.950;6.912;2022-10-31T05:26:30;11.90;;;6.38;;
18596;SDS011;9428;50.950;6.912;2022-10-31T05:29:17;13.48;;;6.28;;
18596;SDS011;9428;50.950;6.912;2022-10-31T05:32:04;9.75;;;5.85;;
18596;SDS011;9428;50.950;6.912;2022-10-31T05:34:51;13.85;;;6.07;;
18596;SDS011;9428;50.950;6.912;2022-10-31T05:37:38;10.15;;;5.80;;
18596;SDS011;9428;50.950;6.912;2022-10-31T05:40:27;15.65;;;5.45;;
18596;SDS011;9428;50.950;6.912;2022-10-31T05:43:15;10.23;;;5.72;;
18596;SDS011;9428;50.950;6.912;2022-10-31T05:46:02;14.90;;;5.82;;
18596;SDS011;9428;50.950;6.912;2022-10-31T05:48:49;16.30;;;6.18;;
18596;SDS011;9428;50.950;6.912;2022-10-31T05:51:36;16.17;;;6.47;;
18596;SDS011;9428;50.950;6.912;2022-10-31T05:54:23;10.10;;;5.60;;
18596;SDS011;9428;50.950;6.912;2022-10-31T05:57:12;12.85;;;6.10;;
18596;SDS011;9428;50.950;6.912;2022-10-31T05:59:59;9.63;;;5.63;;
18596;SDS011;9428;50.950;6.912;2022-10-31T06:02:47;12.98;;;7.05;;
18596;SDS011;9428;50.950;6.912;2022-10-31T06:05:34;19.23;;;6.20;;
18596;SDS011;9428;50.950;6.912;2022-10-31T06:08:21;11.15;;;6.32;;
18596;SDS011;9428;50.950;6.912;2022-10-31T06:11:09;10.00;;;5.63;;
18596;SDS011;9428;50.950;6.912;2022-10-31T06:13:57;13.18;;;6.25;;
18596;SDS011;9428;50.950;6.912;2022-10-31T06:16:44;10.70;;;5.97;;
18596;SDS011;9428;50.950;6.912;2022-10-31T06:19:31;12.63;;;6.00;;
18596;SDS011;9428;50.950;6.912;2022-10-31T06:22:19;13.40;;;6.50;;
18596;SDS011;9428;50.950;6.912;2022-10-31T06:25:06;12.32;;;6.35;;
18596;SDS011;9428;50.950;6.912;2022-10-31T06:27:54;14.73;;;6.15;;
18596;SDS011;9428;50.950;6.912;2022-10-31T06:30:43;9.70;;;6.00;;
18596;SDS011;9428;50.950;6.912;2022-10-31T06:33:30;11.43;;;5.88;;
18596;SDS011;9428;50.950;6.912;2022-10-31T06:36:17;11.27;;;5.85;;
18596;SDS011;9428;50.950;6.912;2022-10-31T06:39:04;10.95;;;6.20;;
18596;SDS011;9428;50.950;6.912;2022-10-31T06:41:51;15.55;;;6.43;;
18596;SDS011;9428;50.950;6.912;2022-10-31T06:44:39;13.15;;;6.43;;
18596;SDS011;9428;50.950;6.912;2022-10-31T06:47:27;15.30;;;6.25;;
18596;SDS011;9428;50.950;6.912;2022-10-31T06:50:14;12.75;;;5.90;;
18596;SDS011;9428;50.950;6.912;2022-10-31T06:53:02;14.27;;;6.63;;
18596;SDS011;9428;50.950;6.912;2022-10-31T06:55:49;10.52;;;6.00;;
18596;SDS011;9428;50.950;6.912;2022-10-31T06:58:36;14.43;;;5.82;;
18596;SDS011;9428;50.950;6.912;2022-10-31T07:01:23;14.52;;;6.32;;
18596;SDS011;9428;50.950;6.912;2022-10-31T07:04:12;14.80;;;6.38;;
18596;SDS011;9428;50.950;6.912;2022-10-31T07:06:59;9.65;;;6.22;;
18596;SDS011;9428;50.950;6.912;2022-10-31T07:09:46;10.30;;;6.43;;
18596;SDS011;9428;50.950;6.912;2022-10-31T07:12:34;12.52;;;6.28;;
18596;SDS011;9428;50.950;6.912;2022-10-31T07:15:21;12.95;;;6.00;;
18596;SDS011;9428;50.950;6.912;2022-10-31T07:18:09;16.83;;;6.70;;
18596;SDS011;9428;50.950;6.912;2022-10-31T07:20:58;11.10;;;5.78;;
18596;SDS011;9428;50.950;6.912;2022-10-31T07:23:47;12.77;;;6.13;;
18596;SDS011;9428;50.950;6.912;2022-10-31T07:26:34;11.95;;;5.38;;
18596;SDS011;9428;50.950;6.912;2022-10-31T07:29:22;9.73;;;6.35;;
18596;SDS011;9428;50.950;6.912;2022-10-31T07:32:09;14.50;;;6.13;;
18596;SDS011;9428;50.950;6.912;2022-10-31T07:34:56;15.52;;;6.28;;
18596;SDS011;9428;50.950;6.912;2022-10-31T07:37:45;15.27;;;6.25;;
18596;SDS011;9428;50.950;6.912;2022-10-31T07:40:32;14.30;;;6.13;;
18596;SDS011;9428;50.950;6.912;2022-10-31T07:43:19;15.40;;;6.25;;
18596;SDS011;9428;50.950;6.912;2022-10-31T07:46:06;21.08;;;6.93;;
18596;SDS011;9428;50.950;6.912;2022-10-31T07:48:54;22.88;;;7.43;;
18596;SDS011;9428;50.950;6.912;2022-10-31T07:51:41;12.52;;;6.10;;
18596;SDS011;9428;50.950;6.912;2022-10-31T07:54:29;9.30;;;5.97;;
18596;SDS011;9428;50.950;6.912;2022-10-31T07:57:16;15.07;;;6.38;;
18596;SDS011;9428;50.950;6.912;2022-10-31T08:00:04;14.70;;;5.80;;
18596;SDS011;9428;50.950;6.912;2022-10-31T08:02:59;11.05;;;6.00;;
18596;SDS011;9428;50.950;6.912;2022-10-31T08:05:46;12.65;;;5.82;;
18596;SDS011;9428;50.950;6.912;2022-10-31T08:08:34;12.63;;;5.97;;
18596;SDS011;9428;50.950;6.912;2022-10-31T08:11:22;17.30;;;6.05;;
18596;SDS011;9428;50.950;6.912;2022-10-31T08:14:09;12.35;;;6.57;;
18596;SDS011;9428;50.950;6.912;2022-10-31T08:16:56;14.20;;;6.65;;
18596;SDS011;9428;50.950;6.912;2022-10-31T08:19:44;11.80;;;6.20;;
18596;SDS011;9428;50.950;6.912;2022-10-31T08:22:31;12.23;;;6.05;;
18596;SDS011;9428;50.950;6.912;2022-10-31T08:25:18;14.55;;;6.60;;
18596;SDS011;9428;50.950;6.912;2022-10-31T08:28:07;13.35;;;6.68;;
18596;SDS011;9428;50.950;6.912;2022-10-31T08:30:56;13.45;;;6.60;;
18596;SDS011;9428;50.950;6.912;2022-10-31T08:33:44;13.00;;;6.85;;
18596;SDS011;9428;50.950;6.912;2022-10-31T08:36:31;15.13;;;6.25;;
18596;SDS011;9428;50.950;6.912;2022-10-31T08:39:19;8.32;;;5.97;;
18596;SDS011;9428;50.950;6.912;2022-10-31T08:42:06;12.48;;;6.00;;
18596;SDS011;9428;50.950;6.912;2022-10-31T08:44:54;11.98;;;6.10;;
18596;SDS011;9428;50.950;6.912;2022-10-31T08:47:41;13.00;;;7.00;;
18596;SDS011;9428;50.950;6.912;2022-10-31T08:50:29;12.45;;;6.38;;
18596;SDS011;9428;50.950;6.912;2022-10-31T08:53:18;15.70;;;6.72;;
18596;SDS011;9428;50.950;6.912;2022-10-31T08:56:05;16.58;;;5.97;;
18596;SDS011;9428;50.950;6.912;2022-10-31T08:58:53;16.17;;;6.55;;
18596;SDS011;9428;50.950;6.912;2022-10-31T09:01:42;11.38;;;6.32;;
18596;SDS011;9428;50.950;6.912;2022-10-31T09:04:31;12.45;;;6.13;;
18596;SDS011;9428;50.950;6.912;2022-10-31T09:07:18;13.98;;;6.60;;
18596;SDS011;9428;50.950;6.912;2022-10-31T09:10:05;15.52;;;6.30;;
18596;SDS011;9428;50.950;6.912;2022-10-31T09:12:56;14.02;;;6.90;;
18596;SDS011;9428;50.950;6.912;2022-10-31T09:15:44;14.25;;;6.82;;
18596;SDS011;9428;50.950;6.912;2022-10-31T09:18:34;12.98;;;7.20;;
18596;SDS011;9428;50.950;6.912;2022-10-31T09:21:21;11.90;;;6.53;;
18596;SDS011;9428;50.950;6.912;2022-10-31T09:24:08;13.48;;;6.72;;
18596;SDS011;9428;50.950;6.912;2022-10-31T09:26:56;9.55;;;6.53;;
18596;SDS011;9428;50.950;6.912;2022-10-31T09:29:45;12.57;;;6.63;;
18596;SDS011;9428;50.950;6.912;2022-10-31T09:32:32;13.27;;;6.68;;
18596;SDS011;9428;50.950;6.912;2022-10-31T09:35:20;13.60;;;6.80;;
18596;SDS011;9428;50.950;6.912;2022-10-31T09:38:08;11.02;;;6.53;;
18596;SDS011;9428;50.950;6.912;2022-10-31T09:41:01;14.95;;;6.85;;
18596;SDS011;9428;50.950;6.912;2022-10-31T09:43:56;15.43;;;6.68;;
18596;SDS011;9428;50.950;6.912;2022-10-31T09:46:50;12.55;;;6.82;;
18596;SDS011;9428;50.950;6.912;2022-10-31T09:49:52;18.58;;;7.68;;
18596;SDS011;9428;50.950;6.912;2022-10-31T09:53:00;24.60;;;7.65;;
18596;SDS011;9428;50.950;6.912;2022-10-31T09:55:51;16.67;;;7.47;;
18596;SDS011;9428;50.950;6.912;2022-10-31T09:58:40;17.30;;;7.63;;
18596;SDS011;9428;50.950;6.912;2022-10-31T10:01:31;13.55;;;7.75;;
18596;SDS011;9428;50.950;6.912;2022-10-31T10:04:37;14.27;;;7.20;;
18596;SDS011;9428;50.950;6.912;2022-10-31T10:07:32;15.07;;;7.40;;
18596;SDS011;9428;50.950;6.912;2022-10-31T10:10:29;18.05;;;6.85;;
18596;SDS011;9428;50.950;6.912;2022-10-31T10:13:36;14.23;;;6.78;;
18596;SDS011;9428;50.950;6.912;2022-10-31T10:16:38;13.52;;;7.18;;
18596;SDS011;9428;50.950;6.912;2022-10-31T10:19:39;17.35;;;7.82;;
18596;SDS011;9428;50.950;6.912;2022-10-31T10:22:41;16.15;;;7.72;;
18596;SDS011;9428;50.950;6.912;2022-10-31T10:25:38;14.98;;;6.93;;
18596;SDS011;9428;50.950;6.912;2022-10-31T10:28:27;14.35;;;7.40;;
18596;SDS011;9428;50.950;6.912;2022-10-31T10:31:24;13.70;;;6.95;;
18596;SDS011;9428;50.950;6.912;2022-10-31T10:34:17;17.90;;;8.05;;
18596;SDS011;9428;50.950;6.912;2022-10-31T10:37:17;18.05;;;10.20;;
18596;SDS011;9428;50.950;6.912;2022-10-31T10:40:11;18.45;;;9.02;;
18596;SDS011;9428;50.950;6.912;2022-10-31T10:43:10;15.88;;;8.60;;
18596;SDS011;9428;50.950;6.912;2022-10-31T10:46:16;22.58;;;7.88;;
18596;SDS011;9428;50.950;6.912;2022-10-31T10:49:24;17.67;;;7.20;;
18596;SDS011;9428;50.950;6.912;2022-10-31T10:52:21;18.02;;;7.35;;
18596;SDS011;9428;50.950;6.912;2022-10-31T10:55:24;14.75;;;7.00;;
18596;SDS011;9428;50.950;6.912;2022-10-31T10:58:20;17.65;;;6.40;;
18596;SDS011;9428;50.950;6.912;2022-10-31T11:01:10;16.02;;;6.00;;
18596;SDS011;9428;50.950;6.912;2022-10-31T11:03:58;16.38;;;6.65;;
18596;SDS011;9428;50.950;6.912;2022-10-31T11:06:56;14.10;;;6.22;;
18596;SDS011;9428;50.950;6.912;2022-10-31T11:09:43;12.00;;;6.25;;
18596;SDS011;9428;50.950;6.912;2022-10-31T11:12:32;16.58;;;5.72;;
18596;SDS011;9428;50.950;6.912;2022-10-31T11:15:22;9.55;;;5.38;;
18596;SDS011;9428;50.950;6.912;2022-10-31T11:18:12;10.95;;;5.35;;
18596;SDS011;9428;50.950;6.912;2022-10-31T11:21:19;12.27;;;5.30;;
18596;SDS011;9428;50.950;6.912;2022-10-31T11:24:12;12.30;;;5.80;;
18596;SDS011;9428;50.950;6.912;2022-10-31T11:27:03;15.13;;;6.60;;
18596;SDS011;9428;50.950;6.912;2022-10-31T11:30:06;11.85;;;6.15;;
18596;SDS011;9428;50.950;6.912;2022-10-31T11:32:58;9.00;;;5.43;;
18596;SDS011;9428;50.950;6.912;2022-10-31T11:35:45;10.50;;;5.15;;
18596;SDS011;9428;50.950;6.912;2022-10-31T11:38:39;13.70;;;4.82;;
18596;SDS011;9428;50.950;6.912;2022-10-31T11:41:29;12.18;;;4.72;;
18596;SDS011;9428;50.950;6.912;2022-10-31T11:44:19;12.38;;;4.60;;
18596;SDS011;9428;50.950;6.912;2022-10-31T11:47:09;17.60;;;5.55;;
18596;SDS011;9428;50.950;6.912;2022-10-31T11:50:08;12.02;;;5.18;;
18596;SDS011;9428;50.950;6.912;2022-10-31T11:52:57;10.45;;;5.40;;
18596;SDS011;9428;50.950;6.912;2022-10-31T11:55:45;13.05;;;5.32;;
18596;SDS011;9428;50.950;6.912;2022-10-31T11:58:34;13.48;;;5.10;;
18596;SDS011;9428;50.950;6.912;2022-10-31T12:01:24;12.70;;;5.28;;
18596;SDS011;9428;50.950;6.912;2022-10-31T12:04:12;11.65;;;4.53;;
18596;SDS011;9428;50.950;6.912;2022-10-31T12:07:02;12.55;;;5.20;;
18596;SDS011;9428;50.950;6.912;2022-10-31T12:09:50;9.57;;;4.88;;
18596;SDS011;9428;50.950;6.912;2022-10-31T12:12:43;17.48;;;5.28;;
18596;SDS011;9428;50.950;6.912;2022-10-31T12:15:44;10.18;;;4.78;;
18596;SDS011;9428;50.950;6.912;2022-10-31T12:18:40;14.93;;;5.22;;
18596;SDS011;9428;50.950;6.912;2022-10-31T12:21:50;9.30;;;5.13;;
18596;SDS011;9428;50.950;6.912;2022-10-31T12:24:54;12.77;;;5.18;;
18596;SDS011;9428;50.950;6.912;2022-10-31T12:27:53;15.15;;;5.47;;
18596;SDS011;9428;50.950;6.912;2022-10-31T12:30:53;12.30;;;4.93;;
18596;SDS011;9428;50.950;6.912;2022-10-31T12:33:52;13.60;;;4.95;;
18596;SDS011;9428;50.950;6.912;2022-10-31T12:36:47;10.77;;;4.13;;
18596;SDS011;9428;50.950;6.912;2022-10-31T12:39:44;11.20;;;5.30;;
18596;SDS011;9428;50.950;6.912;2022-10-31T12:42:47;11.35;;;5.25;;
18596;SDS011;9428;50.950;6.912;2022-10-31T12:45:44;9.65;;;4.35;;
18596;SDS011;9428;50.950;6.912;2022-10-31T12:48:46;10.95;;;4.90;;
18596;SDS011;9428;50.950;6.912;2022-10-31T12:51:49;13.88;;;6.70;;
18596;SDS011;9428;50.950;6.912;2022-10-31T12:54:49;15.73;;;5.15;;
18596;SDS011;9428;50.950;6.912;2022-10-31T12:57:46;11.10;;;5.15;;
18596;SDS011;9428;50.950;6.912;2022-10-31T13:00:37;12.73;;;5.15;;
18596;SDS011;9428;50.950;6.912;2022-10-31T13:03:30;9.32;;;5.05;;
18596;SDS011;9428;50.950;6.912;2022-10-31T13:06:22;9.45;;;4.90;;
18596;SDS011;9428;50.950;6.912;2022-10-31T13:09:17;13.98;;;5.07;;
18596;SDS011;9428;50.950;6.912;2022-10-31T13:12:15;10.85;;;5.75;;
18596;SDS011;9428;50.950;6.912;2022-10-31T13:15:05;12.90;;;4.57;;
18596;SDS011;9428;50.950;6.912;2022-10-31T13:18:03;11.35;;;4.20;;
18596;SDS011;9428;50.950;6.912;2022-10-31T13:20:57;12.10;;;4.65;;
18596;SDS011;9428;50.950;6.912;2022-10-31T13:23:46;11.00;;;5.63;;
18596;SDS011;9428;50.950;6.912;2022-10-31T13:26:38;10.85;;;4.75;;
18596;SDS011;9428;50.950;6.912;2022-10-31T13:29:32;13.20;;;4.63;;
18596;SDS011;9428;50.950;6.912;2022-10-31T13:32:22;5.90;;;3.97;;
18596;SDS011;9428;50.950;6.912;2022-10-31T13:35:13;9.50;;;3.70;;
18596;SDS011;9428;50.950;6.912;2022-10-31T13:38:09;10.48;;;4.70;;
18596;SDS011;9428;50.950;6.912;2022-10-31T13:41:02;9.75;;;3.50;;
18596;SDS011;9428;50.950;6.912;2022-10-31T13:43:58;11.35;;;4.53;;
18596;SDS011;9428;50.950;6.912;2022-10-31T13:50:31;11.30;;;4.30;;
18596;SDS011;9428;50.950;6.912;2022-10-31T13:53:19;11.05;;;5.18;;
18596;SDS011;9428;50.950;6.912;2022-10-31T13:56:15;9.88;;;4.22;;
18596;SDS011;9428;50.950;6.912;2022-10-31T13:59:16;9.57;;;4.57;;
18596;SDS011;9428;50.950;6.912;2022-10-31T14:02:12;7.80;;;4.20;;
18596;SDS011;9428;50.950;6.912;2022-10-31T14:05:02;10.13;;;4.03;;
18596;SDS011;9428;50.950;6.912;2022-10-31T14:07:53;11.00;;;4.40;;
18596;SDS011;9428;50.950;6.912;2022-10-31T14:10:45;9.68;;;4.28;;
18596;SDS011;9428;50.950;6.912;2022-10-31T14:13:36;9.38;;;4.88;;
18596;SDS011;9428;50.950;6.912;2022-10-31T14:16:28;10.10;;;5.65;;
18596;SDS011;9428;50.950;6.912;2022-10-31T14:19:18;16.17;;;6.45;;
18596;SDS011;9428;50.950;6.912;2022-10-31T14:22:18;13.38;;;5.85;;
18596;SDS011;9428;50.950;6.912;2022-10-31T14:28:18;13.75;;;5.15;;
18596;SDS011;9428;50.950;6.912;2022-10-31T14:31:21;15.10;;;6.03;;
18596;SDS011;9428;50.950;6.912;2022-10-31T14:34:23;11.40;;;4.68;;
18596;SDS011;9428;50.950;6.912;2022-10-31T14:37:16;14.40;;;5.85;;
18596;SDS011;9428;50.950;6.912;2022-10-31T14:40:20;10.82;;;4.63;;
18596;SDS011;9428;50.950;6.912;2022-10-31T14:43:35;9.27;;;5.40;;
18596;SDS011;9428;50.950;6.912;2022-10-31T14:46:44;10.82;;;4.05;;
18596;SDS011;9428;50.950;6.912;2022-10-31T14:50:00;11.70;;;4.63;;
18596;SDS011;9428;50.950;6.912;2022-10-31T14:53:02;6.15;;;3.72;;
18596;SDS011;9428;50.950;6.912;2022-10-31T14:55:52;16.23;;;4.30;;
18596;SDS011;9428;50.950;6.912;2022-10-31T14:58:43;11.70;;;4.72;;
18596;SDS011;9428;50.950;6.912;2022-10-31T15:01:32;12.30;;;4.70;;
18596;SDS011;9428;50.950;6.912;2022-10-31T15:04:23;13.70;;;4.40;;
18596;SDS011;9428;50.950;6.912;2022-10-31T15:07:12;10.23;;;3.97;;
18596;SDS011;9428;50.950;6.912;2022-10-31T15:10:05;12.85;;;5.38;;
18596;SDS011;9428;50.950;6.912;2022-10-31T15:13:08;16.25;;;4.75;;
18596;SDS011;9428;50.950;6.912;2022-10-31T15:15:58;17.73;;;4.32;;
18596;SDS011;9428;50.950;6.912;2022-10-31T15:18:49;13.00;;;4.10;;
18596;SDS011;9428;50.950;6.912;2022-10-31T15:21:46;11.75;;;4.75;;
18596;SDS011;9428;50.950;6.912;2022-10-31T15:24:34;11.25;;;5.05;;
18596;SDS011;9428;50.950;6.912;2022-10-31T15:27:24;10.05;;;4.70;;
18596;SDS011;9428;50.950;6.912;2022-10-31T15:30:18;14.55;;;5.22;;
18596;SDS011;9428;50.950;6.912;2022-10-31T15:33:18;14.63;;;5.13;;
18596;SDS011;9428;50.950;6.912;2022-10-31T15:36:17;9.82;;;4.93;;
18596;SDS011;9428;50.950;6.912;2022-10-31T15:39:08;7.70;;;4.20;;
18596;SDS011;9428;50.950;6.912;2022-10-31T15:41:57;11.02;;;4.05;;
18596;SDS011;9428;50.950;6.912;2022-10-31T15:44:46;14.23;;;4.28;;
18596;SDS011;9428;50.950;6.912;2022-10-31T15:47:36;12.20;;;4.25;;
18596;SDS011;9428;50.950;6.912;2022-10-31T15:50:27;10.40;;;3.80;;
18596;SDS011;9428;50.950;6.912;2022-10-31T15:53:17;11.32;;;3.85;;
18596;SDS011;9428;50.950;6.912;2022-10-31T15:56:08;14.88;;;4.20;;
18596;SDS011;9428;50.950;6.912;2022-10-31T15:58:59;9.65;;;3.53;;
18596;SDS011;9428;50.950;6.912;2022-10-31T16:01:55;18.33;;;4.03;;
18596;SDS011;9428;50.950;6.912;2022-10-31T16:04:50;13.30;;;4.53;;
18596;SDS011;9428;50.950;6.912;2022-10-31T16:07:47;12.00;;;3.92;;
18596;SDS011;9428;50.950;6.912;2022-10-31T16:10:35;9.77;;;4.32;;
18596;SDS011;9428;50.950;6.912;2022-10-31T16:13:23;10.07;;;4.18;;
18596;SDS011;9428;50.950;6.912;2022-10-31T16:16:14;8.13;;;4.10;;
18596;SDS011;9428;50.950;6.912;2022-10-31T16:19:03;8.70;;;4.03;;
18596;SDS011;9428;50.950;6.912;2022-10-31T16:21:53;6.50;;;3.60;;
18596;SDS011;9428;50.950;6.912;2022-10-31T16:24:45;8.02;;;3.88;;
18596;SDS011;9428;50.950;6.912;2022-10-31T16:27:35;8.55;;;4.32;;
18596;SDS011;9428;50.950;6.912;2022-10-31T16:30:27;11.02;;;3.88;;
18596;SDS011;9428;50.950;6.912;2022-10-31T16:33:21;8.30;;;4.13;;
18596;SDS011;9428;50.950;6.912;2022-10-31T16:39:17;15.05;;;4.38;;
18596;SDS011;9428;50.950;6.912;2022-10-31T16:42:07;12.18;;;4.10;;
18596;SDS011;9428;50.950;6.912;2022-10-31T16:44:55;10.40;;;4.72;;
18596;SDS011;9428;50.950;6.912;2022-10-31T16:47:42;11.48;;;4.32;;
18596;SDS011;9428;50.950;6.912;2022-10-31T16:50:30;12.15;;;4.30;;
18596;SDS011;9428;50.950;6.912;2022-10-31T16:53:17;14.20;;;4.38;;
18596;SDS011;9428;50.950;6.912;2022-10-31T16:56:05;9.52;;;4.22;;
18596;SDS011;9428;50.950;6.912;2022-10-31T16:59:04;12.38;;;4.25;;
18596;SDS011;9428;50.950;6.912;2022-10-31T17:01:57;7.57;;;4.43;;
18596;SDS011;9428;50.950;6.912;2022-10-31T17:04:44;16.17;;;5.55;;
18596;SDS011;9428;50.950;6.912;2022-10-31T17:07:31;8.68;;;4.50;;
18596;SDS011;9428;50.950;6.912;2022-10-31T17:10:19;7.95;;;5.10;;
18596;SDS011;9428;50.950;6.912;2022-10-31T17:13:07;7.80;;;4.63;;
18596;SDS011;9428;50.950;6.912;2022-10-31T17:16:01;13.23;;;6.22;;
18596;SDS011;9428;50.950;6.912;2022-10-31T17:18:49;14.82;;;5.05;;
18596;SDS011;9428;50.950;6.912;2022-10-31T17:21:36;9.63;;;4.57;;
18596;SDS011;9428;50.950;6.912;2022-10-31T17:24:25;10.60;;;4.80;;